sensor_id;sensor_type;location;lat;lon;timestamp;noise_LAeq;noise_LA_min;noise_LA_max;noise_LA01;noise_LA95
17594;Laerm;8916;47.086;15.920;2023-03-05T00:00:23;49.46;48.42;50.51;;
17594;Laerm;8916;47.086;15.920;2023-03-05T00:02:52;49.45;48.37;50.63;;
17594;Laerm;8916;47.086;15.920;2023-03-05T00:05:22;49.45;48.25;50.68;;
17594;Laerm;8916;47.086;15.920;2023-03-05T00:07:51;49.45;48.31;50.81;;
17594;Laerm;8916;47.086;15.920;2023-03-05T00:10:21;49.45;48.43;50.61;;
17594;Laerm;8916;47.086;15.920;2023-03-05T00:12:50;49.46;48.42;50.80;;
17594;Laerm;8916;47.086;15.920;2023-03-05T00:15:19;49.46;48.34;50.64;;
17594;Laerm;8916;47.086;15.920;2023-03-05T00:17:48;49.46;48.45;50.73;;
17594;Laerm;8916;47.086;15.920;2023-03-05T00:20:17;49.47;48.08;50.62;;
17594;Laerm;8916;47.086;15.920;2023-03-05T00:22:48;49.48;48.36;50.49;;
17594;Laerm;8916;47.086;15.920;2023-03-05T00:25:17;49.49;48.31;50.92;;
17594;Laerm;8916;47.086;15.920;2023-03-05T00:27:46;49.48;48.34;50.50;;
17594;Laerm;8916;47.086;15.920;2023-03-05T00:30:15;49.48;48.20;50.77;;
17594;Laerm;8916;47.086;15.920;2023-03-05T00:32:44;49.48;48.48;50.68;;
17594;Laerm;8916;47.086;15.920;2023-03-05T00:35:13;49.48;48.46;50.68;;
17594;Laerm;8916;47.086;15.920;2023-03-05T00:37:42;49.47;48.28;50.77;;
17594;Laerm;8916;47.086;15.920;2023-03-05T00:40:13;49.47;48.07;50.54;;
17594;Laerm;8916;47.086;15.920;2023-03-05T00:42:43;49.46;48.32;50.68;;
17594;Laerm;8916;47.086;15.920;2023-03-05T00:45:12;49.46;48.32;50.51;;
17594;Laerm;8916;47.086;15.920;2023-03-05T00:47:41;49.47;48.16;50.48;;
17594;Laerm;8916;47.086;15.920;2023-03-05T00:50:10;49.48;48.20;50.62;;
17594;Laerm;8916;47.086;15.920;2023-03-05T00:52:40;49.47;48.40;50.76;;
17594;Laerm;8916;47.086;15.920;2023-03-05T00:55:09;49.47;48.51;50.68;;
17594;Laerm;8916;47.086;15.920;2023-03-05T00:57:40;49.48;48.29;50.49;;
17594;Laerm;8916;47.086;15.920;2023-03-05T01:00:11;49.48;48.37;50.76;;
17594;Laerm;8916;47.086;15.920;2023-03-05T01:02:40;49.49;48.39;50.53;;
17594;Laerm;8916;47.086;15.920;2023-03-05T01:05:11;49.50;48.42;50.47;;
17594;Laerm;8916;47.086;15.920;2023-03-05T01:07:41;49.49;48.39;50.74;;
17594;Laerm;8916;47.086;15.920;2023-03-05T01:10:11;49.49;48.51;50.58;;
17594;Laerm;8916;47.086;15.920;2023-03-05T01:12:42;49.48;48.28;50.55;;
17594;Laerm;8916;47.086;15.920;2023-03-05T01:15:11;49.49;48.37;50.57;;
17594;Laerm;8916;47.086;15.920;2023-03-05T01:17:40;49.48;48.08;50.59;;
17594;Laerm;8916;47.086;15.920;2023-03-05T01:20:13;49.48;48.51;50.73;;
17594;Laerm;8916;47.086;15.920;2023-03-05T01:22:42;49.48;48.42;50.51;;
17594;Laerm;8916;47.086;15.920;2023-03-05T01:25:12;49.49;48.36;50.64;;
17594;Laerm;8916;47.086;15.920;2023-03-05T01:27:43;49.48;48.36;50.54;;
17594;Laerm;8916;47.086;15.920;2023-03-05T01:30:13;49.49;48.46;50.59;;
17594;Laerm;8916;47.086;15.920;2023-03-05T01:32:43;49.49;48.34;50.68;;
17594;Laerm;8916;47.086;15.920;2023-03-05T01:35:17;49.48;48.36;50.56;;
17594;Laerm;8916;47.086;15.920;2023-03-05T01:37:47;49.49;48.39;50.70;;
17594;Laerm;8916;47.086;15.920;2023-03-05T01:40:19;49.48;48.40;50.37;;
17594;Laerm;8916;47.086;15.920;2023-03-05T01:42:58;49.49;48.42;50.57;;
17594;Laerm;8916;47.086;15.920;2023-03-05T01:45:30;49.49;48.42;50.56;;
17594;Laerm;8916;47.086;15.920;2023-03-05T01:48:00;49.48;48.39;50.64;;
17594;Laerm;8916;47.086;15.920;2023-03-05T01:50:29;49.49;48.05;50.73;;
17594;Laerm;8916;47.086;15.920;2023-03-05T01:53:03;49.49;48.43;50.61;;
17594;Laerm;8916;47.086;15.920;2023-03-05T01:55:37;49.49;48.42;50.50;;
17594;Laerm;8916;47.086;15.920;2023-03-05T01:58:10;49.49;48.36;50.68;;
17594;Laerm;8916;47.086;15.920;2023-03-05T02:00:44;49.49;48.45;50.57;;
17594;Laerm;8916;47.086;15.920;2023-03-05T02:03:14;49.50;48.46;50.62;;
17594;Laerm;8916;47.086;15.920;2023-03-05T02:05:44;49.50;48.51;50.93;;
17594;Laerm;8916;47.086;15.920;2023-03-05T02:08:16;49.49;48.29;50.55;;
17594;Laerm;8916;47.086;15.920;2023-03-05T02:10:47;49.50;48.42;50.56;;
17594;Laerm;8916;47.086;15.920;2023-03-05T02:13:21;49.50;48.48;50.68;;
17594;Laerm;8916;47.086;15.920;2023-03-05T02:15:52;49.50;48.31;50.49;;
17594;Laerm;8916;47.086;15.920;2023-03-05T02:18:22;49.51;48.39;50.73;;
17594;Laerm;8916;47.086;15.920;2023-03-05T02:20:58;49.50;48.28;50.52;;
17594;Laerm;8916;47.086;15.920;2023-03-05T02:23:31;49.50;48.41;50.56;;
17594;Laerm;8916;47.086;15.920;2023-03-05T02:26:07;49.51;48.34;50.44;;
17594;Laerm;8916;47.086;15.920;2023-03-05T02:28:39;49.51;48.48;50.67;;
17594;Laerm;8916;47.086;15.920;2023-03-05T02:31:14;49.51;48.46;50.54;;
17594;Laerm;8916;47.086;15.920;2023-03-05T02:33:44;49.52;48.48;50.79;;
17594;Laerm;8916;47.086;15.920;2023-03-05T02:36:16;49.52;48.39;50.52;;
17594;Laerm;8916;47.086;15.920;2023-03-05T02:38:47;49.51;48.48;50.46;;
17594;Laerm;8916;47.086;15.920;2023-03-05T02:41:16;49.51;48.31;50.74;;
17594;Laerm;8916;47.086;15.920;2023-03-05T02:43:46;49.52;48.40;50.75;;
17594;Laerm;8916;47.086;15.920;2023-03-05T02:46:15;49.52;48.36;50.70;;
17594;Laerm;8916;47.086;15.920;2023-03-05T02:48:44;49.52;48.51;50.70;;
17594;Laerm;8916;47.086;15.920;2023-03-05T02:51:15;49.52;48.52;50.77;;
17594;Laerm;8916;47.086;15.920;2023-03-05T02:53:46;49.53;48.43;50.84;;
17594;Laerm;8916;47.086;15.920;2023-03-05T02:56:16;49.52;48.42;50.65;;
17594;Laerm;8916;47.086;15.920;2023-03-05T02:58:45;49.51;48.54;50.54;;
17594;Laerm;8916;47.086;15.920;2023-03-05T03:01:14;49.52;48.15;50.71;;
17594;Laerm;8916;47.086;15.920;2023-03-05T03:03:43;49.51;48.52;50.58;;
17594;Laerm;8916;47.086;15.920;2023-03-05T03:06:12;49.52;48.42;50.96;;
17594;Laerm;8916;47.086;15.920;2023-03-05T03:08:43;49.52;48.52;50.59;;
17594;Laerm;8916;47.086;15.920;2023-03-05T03:11:12;49.52;48.46;50.85;;
17594;Laerm;8916;47.086;15.920;2023-03-05T03:13:41;49.53;48.28;50.60;;
17594;Laerm;8916;47.086;15.920;2023-03-05T03:16:13;49.53;48.48;50.71;;
17594;Laerm;8916;47.086;15.920;2023-03-05T03:18:43;49.53;48.31;50.69;;
17594;Laerm;8916;47.086;15.920;2023-03-05T03:21:18;49.52;48.46;50.51;;
17594;Laerm;8916;47.086;15.920;2023-03-05T03:23:49;49.53;48.37;50.84;;
17594;Laerm;8916;47.086;15.920;2023-03-05T03:26:19;49.53;48.28;50.65;;
17594;Laerm;8916;47.086;15.920;2023-03-05T03:28:48;49.54;48.46;50.60;;
17594;Laerm;8916;47.086;15.920;2023-03-05T03:31:17;49.53;48.31;50.91;;
17594;Laerm;8916;47.086;15.920;2023-03-05T03:33:46;49.54;48.52;50.66;;
17594;Laerm;8916;47.086;15.920;2023-03-05T03:36:15;49.54;48.36;50.64;;
17594;Laerm;8916;47.086;15.920;2023-03-05T03:38:44;49.54;48.42;50.61;;
17594;Laerm;8916;47.086;15.920;2023-03-05T03:41:15;49.54;48.58;50.61;;
17594;Laerm;8916;47.086;15.920;2023-03-05T03:43:45;49.54;48.51;50.75;;
17594;Laerm;8916;47.086;15.920;2023-03-05T03:46:14;49.54;48.55;50.56;;
17594;Laerm;8916;47.086;15.920;2023-03-05T03:48:43;49.54;48.42;50.67;;
17594;Laerm;8916;47.086;15.920;2023-03-05T03:51:12;49.55;48.31;50.79;;
17594;Laerm;8916;47.086;15.920;2023-03-05T03:53:41;49.54;48.42;50.63;;
17594;Laerm;8916;47.086;15.920;2023-03-05T03:56:11;49.55;48.23;50.52;;
17594;Laerm;8916;47.086;15.920;2023-03-05T03:58:41;49.55;48.40;50.75;;
17594;Laerm;8916;47.086;15.920;2023-03-05T04:01:10;49.54;48.36;50.98;;
17594;Laerm;8916;47.086;15.920;2023-03-05T04:03:39;49.54;48.51;50.62;;
17594;Laerm;8916;47.086;15.920;2023-03-05T04:06:08;49.54;48.57;50.57;;
17594;Laerm;8916;47.086;15.920;2023-03-05T04:08:37;49.54;48.43;50.64;;
17594;Laerm;8916;47.086;15.920;2023-03-05T04:11:08;49.53;48.25;50.52;;
17594;Laerm;8916;47.086;15.920;2023-03-05T04:13:37;49.54;48.46;50.57;;
17594;Laerm;8916;47.086;15.920;2023-03-05T04:16:08;49.55;48.32;50.63;;
17594;Laerm;8916;47.086;15.920;2023-03-05T04:18:37;49.55;48.54;50.66;;
17594;Laerm;8916;47.086;15.920;2023-03-05T04:21:07;49.55;48.49;50.65;;
17594;Laerm;8916;47.086;15.920;2023-03-05T04:23:36;49.54;48.42;50.64;;
17594;Laerm;8916;47.086;15.920;2023-03-05T04:26:07;49.54;48.28;50.48;;
17594;Laerm;8916;47.086;15.920;2023-03-05T04:28:36;49.55;48.37;50.65;;
17594;Laerm;8916;47.086;15.920;2023-03-05T04:31:05;49.55;48.46;50.56;;
17594;Laerm;8916;47.086;15.920;2023-03-05T04:33:35;49.55;48.39;50.67;;
17594;Laerm;8916;47.086;15.920;2023-03-05T04:36:06;49.56;48.49;50.65;;
17594;Laerm;8916;47.086;15.920;2023-03-05T04:38:35;49.55;48.55;50.73;;
17594;Laerm;8916;47.086;15.920;2023-03-05T04:41:04;49.55;48.40;50.64;;
17594;Laerm;8916;47.086;15.920;2023-03-05T04:43:33;49.56;48.15;51.13;;
17594;Laerm;8916;47.086;15.920;2023-03-05T04:46:05;49.56;48.51;50.51;;
17594;Laerm;8916;47.086;15.920;2023-03-05T04:48:35;49.55;48.46;50.55;;
17594;Laerm;8916;47.086;15.920;2023-03-05T04:51:05;49.56;48.45;50.74;;
17594;Laerm;8916;47.086;15.920;2023-03-05T04:53:34;49.56;48.51;50.65;;
17594;Laerm;8916;47.086;15.920;2023-03-05T04:56:04;49.56;48.45;50.67;;
17594;Laerm;8916;47.086;15.920;2023-03-05T04:58:33;49.56;48.41;50.87;;
17594;Laerm;8916;47.086;15.920;2023-03-05T05:01:03;49.56;48.52;50.68;;
17594;Laerm;8916;47.086;15.920;2023-03-05T05:03:35;49.56;48.48;50.66;;
17594;Laerm;8916;47.086;15.920;2023-03-05T05:06:04;49.55;48.12;50.70;;
17594;Laerm;8916;47.086;15.920;2023-03-05T05:08:34;49.56;48.54;50.70;;
17594;Laerm;8916;47.086;15.920;2023-03-05T05:11:06;49.56;48.58;50.68;;
17594;Laerm;8916;47.086;15.920;2023-03-05T05:13:35;49.56;48.26;50.72;;
17594;Laerm;8916;47.086;15.920;2023-03-05T05:16:05;49.56;48.28;50.59;;
17594;Laerm;8916;47.086;15.920;2023-03-05T05:18:37;49.56;48.54;50.66;;
17594;Laerm;8916;47.086;15.920;2023-03-05T05:21:07;49.56;48.55;50.65;;
17594;Laerm;8916;47.086;15.920;2023-03-05T05:23:37;49.56;48.42;50.62;;
17594;Laerm;8916;47.086;15.920;2023-03-05T05:26:09;49.56;48.40;50.61;;
17594;Laerm;8916;47.086;15.920;2023-03-05T05:28:41;49.56;48.52;50.66;;
17594;Laerm;8916;47.086;15.920;2023-03-05T05:31:13;49.56;48.52;50.55;;
17594;Laerm;8916;47.086;15.920;2023-03-05T05:33:45;49.57;48.54;50.77;;
17594;Laerm;8916;47.086;15.920;2023-03-05T05:36:17;49.55;48.21;50.59;;
17594;Laerm;8916;47.086;15.920;2023-03-05T05:38:49;49.56;48.42;50.76;;
17594;Laerm;8916;47.086;15.920;2023-03-05T05:41:18;49.57;48.21;50.49;;
17594;Laerm;8916;47.086;15.920;2023-03-05T05:43:48;49.57;48.48;50.65;;
17594;Laerm;8916;47.086;15.920;2023-03-05T05:46:19;49.56;48.46;51.17;;
17594;Laerm;8916;47.086;15.920;2023-03-05T05:48:50;49.55;48.45;50.70;;
17594;Laerm;8916;47.086;15.920;2023-03-05T05:51:21;49.55;48.57;50.79;;
17594;Laerm;8916;47.086;15.920;2023-03-05T05:53:51;49.56;48.31;50.60;;
17594;Laerm;8916;47.086;15.920;2023-03-05T05:56:20;49.56;48.37;50.59;;
17594;Laerm;8916;47.086;15.920;2023-03-05T05:58:49;49.55;48.02;50.50;;
17594;Laerm;8916;47.086;15.920;2023-03-05T06:01:24;49.55;48.42;50.85;;
17594;Laerm;8916;47.086;15.920;2023-03-05T06:03:56;49.56;48.45;50.71;;
17594;Laerm;8916;47.086;15.920;2023-03-05T06:06:27;49.54;48.42;50.86;;
17594;Laerm;8916;47.086;15.920;2023-03-05T06:08:56;49.55;48.46;51.00;;
17594;Laerm;8916;47.086;15.920;2023-03-05T06:11:25;49.55;48.37;50.74;;
17594;Laerm;8916;47.086;15.920;2023-03-05T06:13:55;49.54;48.46;50.63;;
17594;Laerm;8916;47.086;15.920;2023-03-05T06:16:24;49.52;48.45;50.67;;
17594;Laerm;8916;47.086;15.920;2023-03-05T06:18:53;49.51;48.40;50.67;;
17594;Laerm;8916;47.086;15.920;2023-03-05T06:21:24;49.50;48.43;50.56;;
17594;Laerm;8916;47.086;15.920;2023-03-05T06:23:53;49.49;48.40;50.57;;
17594;Laerm;8916;47.086;15.920;2023-03-05T06:26:22;49.48;48.39;50.51;;
17594;Laerm;8916;47.086;15.920;2023-03-05T06:28:52;49.47;48.28;50.47;;
17594;Laerm;8916;47.086;15.920;2023-03-05T06:31:23;49.45;48.37;50.47;;
17594;Laerm;8916;47.086;15.920;2023-03-05T06:33:58;49.46;48.43;50.58;;
17594;Laerm;8916;47.086;15.920;2023-03-05T06:36:30;49.45;48.39;50.44;;
17594;Laerm;8916;47.086;15.920;2023-03-05T06:38:59;49.44;48.43;50.45;;
17594;Laerm;8916;47.086;15.920;2023-03-05T06:41:31;49.43;48.36;50.61;;
17594;Laerm;8916;47.086;15.920;2023-03-05T06:44:01;49.43;48.47;50.63;;
17594;Laerm;8916;47.086;15.920;2023-03-05T06:46:32;49.43;48.34;50.78;;
17594;Laerm;8916;47.086;15.920;2023-03-05T06:49:02;49.42;48.32;50.57;;
17594;Laerm;8916;47.086;15.920;2023-03-05T06:51:37;49.43;48.29;50.62;;
17594;Laerm;8916;47.086;15.920;2023-03-05T06:54:09;49.42;48.36;50.51;;
17594;Laerm;8916;47.086;15.920;2023-03-05T06:56:41;49.41;48.21;50.49;;
17594;Laerm;8916;47.086;15.920;2023-03-05T06:59:11;49.40;48.28;50.58;;
17594;Laerm;8916;47.086;15.920;2023-03-05T07:01:44;49.41;48.32;50.50;;
17594;Laerm;8916;47.086;15.920;2023-03-05T07:04:14;49.42;48.21;50.67;;
17594;Laerm;8916;47.086;15.920;2023-03-05T07:06:45;49.40;48.23;50.59;;
17594;Laerm;8916;47.086;15.920;2023-03-05T07:09:15;49.39;48.12;50.53;;
17594;Laerm;8916;47.086;15.920;2023-03-05T07:11:44;49.41;48.26;50.56;;
17594;Laerm;8916;47.086;15.920;2023-03-05T07:14:13;49.42;48.31;50.53;;
17594;Laerm;8916;47.086;15.920;2023-03-05T07:16:42;49.40;48.32;50.47;;
17594;Laerm;8916;47.086;15.920;2023-03-05T07:19:11;49.36;48.25;50.60;;
17594;Laerm;8916;47.086;15.920;2023-03-05T07:21:40;49.34;48.29;50.33;;
17594;Laerm;8916;47.086;15.920;2023-03-05T07:24:11;49.33;48.34;50.62;;
17594;Laerm;8916;47.086;15.920;2023-03-05T07:26:41;49.31;48.21;50.50;;
17594;Laerm;8916;47.086;15.920;2023-03-05T07:29:10;49.29;48.23;50.51;;
17594;Laerm;8916;47.086;15.920;2023-03-05T07:31:39;49.26;48.18;50.29;;
17594;Laerm;8916;47.086;15.920;2023-03-05T07:34:09;49.27;48.13;50.75;;
17594;Laerm;8916;47.086;15.920;2023-03-05T07:36:38;49.27;47.96;50.35;;
17594;Laerm;8916;47.086;15.920;2023-03-05T07:39:12;49.26;48.10;50.50;;
17594;Laerm;8916;47.086;15.920;2023-03-05T07:41:41;49.26;48.13;50.43;;
17594;Laerm;8916;47.086;15.920;2023-03-05T07:44:10;49.24;48.18;50.27;;
17594;Laerm;8916;47.086;15.920;2023-03-05T07:46:39;49.23;48.03;50.37;;
17594;Laerm;8916;47.086;15.920;2023-03-05T07:49:08;49.24;48.20;50.26;;
17594;Laerm;8916;47.086;15.920;2023-03-05T07:51:40;49.22;48.07;50.77;;
17594;Laerm;8916;47.086;15.920;2023-03-05T07:54:11;49.21;48.07;50.36;;
17594;Laerm;8916;47.086;15.920;2023-03-05T07:56:40;49.20;47.86;50.33;;
17594;Laerm;8916;47.086;15.920;2023-03-05T07:59:12;49.19;48.10;50.36;;
17594;Laerm;8916;47.086;15.920;2023-03-05T08:01:42;49.21;48.18;50.38;;
17594;Laerm;8916;47.086;15.920;2023-03-05T08:04:13;49.26;47.88;50.27;;
17594;Laerm;8916;47.086;15.920;2023-03-05T08:06:42;49.30;48.03;50.69;;
17594;Laerm;8916;47.086;15.920;2023-03-05T08:09:12;49.27;48.02;50.24;;
17594;Laerm;8916;47.086;15.920;2023-03-05T08:11:42;49.21;48.20;50.39;;
17594;Laerm;8916;47.086;15.920;2023-03-05T08:14:11;49.17;48.10;50.32;;
17594;Laerm;8916;47.086;15.920;2023-03-05T08:16:40;49.14;48.02;50.41;;
17594;Laerm;8916;47.086;15.920;2023-03-05T08:19:15;49.11;48.03;50.18;;
17594;Laerm;8916;47.086;15.920;2023-03-05T08:21:44;49.08;48.08;50.18;;
17594;Laerm;8916;47.086;15.920;2023-03-05T08:24:17;49.07;48.07;50.23;;
17594;Laerm;8916;47.086;15.920;2023-03-05T08:26:46;49.08;47.98;50.45;;
17594;Laerm;8916;47.086;15.920;2023-03-05T08:29:16;49.06;47.95;50.09;;
17594;Laerm;8916;47.086;15.920;2023-03-05T08:31:45;49.05;48.02;50.32;;
17594;Laerm;8916;47.086;15.920;2023-03-05T08:34:14;49.04;47.84;50.15;;
17594;Laerm;8916;47.086;15.920;2023-03-05T08:36:47;49.04;47.90;50.27;;
17594;Laerm;8916;47.086;15.920;2023-03-05T08:39:17;49.02;47.86;50.29;;
17594;Laerm;8916;47.086;15.920;2023-03-05T08:41:46;49.02;47.96;50.45;;
17594;Laerm;8916;47.086;15.920;2023-03-05T08:44:15;49.01;48.02;50.20;;
17594;Laerm;8916;47.086;15.920;2023-03-05T08:46:44;49.01;47.90;50.14;;
17594;Laerm;8916;47.086;15.920;2023-03-05T08:49:14;48.99;47.86;49.94;;
17594;Laerm;8916;47.086;15.920;2023-03-05T08:51:43;48.98;47.79;50.41;;
17594;Laerm;8916;47.086;15.920;2023-03-05T08:54:12;48.96;47.93;50.19;;
17594;Laerm;8916;47.086;15.920;2023-03-05T08:56:44;48.95;47.81;50.15;;
17594;Laerm;8916;47.086;15.920;2023-03-05T08:59:13;48.94;47.91;50.12;;
17594;Laerm;8916;47.086;15.920;2023-03-05T09:01:42;48.93;47.81;50.15;;
17594;Laerm;8916;47.086;15.920;2023-03-05T09:04:12;48.92;47.83;50.03;;
17594;Laerm;8916;47.086;15.920;2023-03-05T09:06:42;48.91;47.88;50.10;;
17594;Laerm;8916;47.086;15.920;2023-03-05T09:09:11;48.93;47.83;50.12;;
17594;Laerm;8916;47.086;15.920;2023-03-05T09:11:42;48.90;47.74;50.19;;
17594;Laerm;8916;47.086;15.920;2023-03-05T09:14:11;48.90;47.48;50.08;;
17594;Laerm;8916;47.086;15.920;2023-03-05T09:16:40;48.88;47.81;50.14;;
17594;Laerm;8916;47.086;15.920;2023-03-05T09:19:09;48.94;47.91;50.30;;
17594;Laerm;8916;47.086;15.920;2023-03-05T09:21:39;48.92;47.79;50.26;;
17594;Laerm;8916;47.086;15.920;2023-03-05T09:24:09;48.90;47.77;50.01;;
17594;Laerm;8916;47.086;15.920;2023-03-05T09:26:38;48.87;47.79;50.01;;
17594;Laerm;8916;47.086;15.920;2023-03-05T09:29:11;48.85;47.77;49.95;;
17594;Laerm;8916;47.086;15.920;2023-03-05T09:31:40;48.88;47.72;50.30;;
17594;Laerm;8916;47.086;15.920;2023-03-05T09:34:11;48.90;47.79;50.15;;
17594;Laerm;8916;47.086;15.920;2023-03-05T09:36:40;48.91;47.81;50.25;;
17594;Laerm;8916;47.086;15.920;2023-03-05T09:39:10;48.90;47.74;50.12;;
17594;Laerm;8916;47.086;15.920;2023-03-05T09:42:12;48.89;47.88;50.00;;
17594;Laerm;8916;47.086;15.920;2023-03-05T09:45:03;48.86;47.55;50.03;;
17594;Laerm;8916;47.086;15.920;2023-03-05T09:47:47;48.81;47.65;50.07;;
17594;Laerm;8916;47.086;15.920;2023-03-05T09:50:36;48.82;47.52;49.97;;
17594;Laerm;8916;47.086;15.920;2023-03-05T09:53:24;48.84;47.67;50.04;;
17594;Laerm;8916;47.086;15.920;2023-03-05T09:55:58;48.86;47.55;50.18;;
17594;Laerm;8916;47.086;15.920;2023-03-05T09:58:34;48.84;47.61;49.96;;
17594;Laerm;8916;47.086;15.920;2023-03-05T10:01:10;48.90;47.72;50.33;;
17594;Laerm;8916;47.086;15.920;2023-03-05T10:03:52;48.95;47.93;50.27;;
17594;Laerm;8916;47.086;15.920;2023-03-05T10:06:26;48.90;47.68;50.16;;
17594;Laerm;8916;47.086;15.920;2023-03-05T10:09:02;48.91;47.84;50.15;;
17594;Laerm;8916;47.086;15.920;2023-03-05T10:11:44;48.92;47.83;50.01;;
17594;Laerm;8916;47.086;15.920;2023-03-05T10:14:23;48.92;47.61;50.09;;
17594;Laerm;8916;47.086;15.920;2023-03-05T10:17:18;48.91;47.46;50.21;;
17594;Laerm;8916;47.086;15.920;2023-03-05T10:20:21;48.92;47.77;50.14;;
17594;Laerm;8916;47.086;15.920;2023-03-05T10:23:11;48.94;47.74;50.10;;
17594;Laerm;8916;47.086;15.920;2023-03-05T10:25:57;48.89;47.77;49.95;;
17594;Laerm;8916;47.086;15.920;2023-03-05T10:28:37;48.91;47.79;50.33;;
17594;Laerm;8916;47.086;15.920;2023-03-05T10:31:23;48.94;47.77;50.08;;
17594;Laerm;8916;47.086;15.920;2023-03-05T10:34:14;48.93;47.65;50.09;;
17594;Laerm;8916;47.086;15.920;2023-03-05T10:37:03;48.88;47.77;50.21;;
17594;Laerm;8916;47.086;15.920;2023-03-05T10:40:10;48.88;47.61;50.15;;
17594;Laerm;8916;47.086;15.920;2023-03-05T10:42:46;48.87;47.83;50.04;;
17594;Laerm;8916;47.086;15.920;2023-03-05T10:45:23;48.85;47.77;50.05;;
17594;Laerm;8916;47.086;15.920;2023-03-05T10:47:58;48.91;47.84;50.02;;
17594;Laerm;8916;47.086;15.920;2023-03-05T10:50:35;48.94;47.81;50.23;;
17594;Laerm;8916;47.086;15.920;2023-03-05T10:53:16;48.96;47.98;50.34;;
17594;Laerm;8916;47.086;15.920;2023-03-05T10:55:48;48.99;47.72;50.20;;
17594;Laerm;8916;47.086;15.920;2023-03-05T10:58:24;48.97;47.91;50.12;;
17594;Laerm;8916;47.086;15.920;2023-03-05T11:00:59;48.97;47.90;50.00;;
17594;Laerm;8916;47.086;15.920;2023-03-05T11:03:51;48.97;47.90;50.09;;
17594;Laerm;8916;47.086;15.920;2023-03-05T11:06:35;48.97;47.84;50.19;;
17594;Laerm;8916;47.086;15.920;2023-03-05T11:09:21;48.95;47.81;50.36;;
17594;Laerm;8916;47.086;15.920;2023-03-05T11:12:11;48.96;47.95;50.04;;
17594;Laerm;8916;47.086;15.920;2023-03-05T11:14:45;48.97;47.86;50.07;;
17594;Laerm;8916;47.086;15.920;2023-03-05T11:17:30;48.98;47.88;50.22;;
17594;Laerm;8916;47.086;15.920;2023-03-05T11:20:28;48.97;47.86;50.09;;
17594;Laerm;8916;47.086;15.920;2023-03-05T11:23:08;48.94;47.83;50.21;;
17594;Laerm;8916;47.086;15.920;2023-03-05T11:26:03;48.94;47.95;50.25;;
17594;Laerm;8916;47.086;15.920;2023-03-05T11:28:35;48.93;47.93;50.14;;
17594;Laerm;8916;47.086;15.920;2023-03-05T11:31:18;48.94;47.86;50.27;;
17594;Laerm;8916;47.086;15.920;2023-03-05T11:33:58;48.93;47.96;49.97;;
17594;Laerm;8916;47.086;15.920;2023-03-05T11:36:31;48.93;47.76;49.96;;
17594;Laerm;8916;47.086;15.920;2023-03-05T11:39:14;48.93;47.86;50.16;;
17594;Laerm;8916;47.086;15.920;2023-03-05T11:41:48;48.91;47.67;50.05;;
17594;Laerm;8916;47.086;15.920;2023-03-05T11:44:22;48.91;47.77;50.17;;
17594;Laerm;8916;47.086;15.920;2023-03-05T11:46:57;48.92;47.81;50.18;;
17594;Laerm;8916;47.086;15.920;2023-03-05T11:49:29;48.92;47.86;50.02;;
17594;Laerm;8916;47.086;15.920;2023-03-05T11:52:06;48.92;47.81;50.13;;
17594;Laerm;8916;47.086;15.920;2023-03-05T11:54:53;48.94;47.79;50.56;;
17594;Laerm;8916;47.086;15.920;2023-03-05T11:57:25;48.97;47.79;50.32;;
17594;Laerm;8916;47.086;15.920;2023-03-05T11:59:58;48.96;47.86;50.05;;
17594;Laerm;8916;47.086;15.920;2023-03-05T12:02:36;48.96;47.96;50.07;;
17594;Laerm;8916;47.086;15.920;2023-03-05T12:05:07;48.95;47.86;50.09;;
17594;Laerm;8916;47.086;15.920;2023-03-05T12:07:41;48.95;47.88;50.16;;
17594;Laerm;8916;47.086;15.920;2023-03-05T12:10:20;48.93;47.80;50.12;;
17594;Laerm;8916;47.086;15.920;2023-03-05T12:12:57;48.96;47.77;50.10;;
17594;Laerm;8916;47.086;15.920;2023-03-05T12:15:38;48.99;47.84;50.20;;
17594;Laerm;8916;47.086;15.920;2023-03-05T12:18:23;49.00;47.81;50.20;;
17594;Laerm;8916;47.086;15.920;2023-03-05T12:21:03;48.97;47.76;50.09;;
17594;Laerm;8916;47.086;15.920;2023-03-05T12:23:46;48.93;47.93;50.03;;
17594;Laerm;8916;47.086;15.920;2023-03-05T12:26:18;48.89;47.77;50.07;;
17594;Laerm;8916;47.086;15.920;2023-03-05T12:29:28;48.91;47.84;50.10;;
17594;Laerm;8916;47.086;15.920;2023-03-05T12:31:59;48.93;47.74;50.10;;
17594;Laerm;8916;47.086;15.920;2023-03-05T12:34:47;48.93;47.61;50.09;;
17594;Laerm;8916;47.086;15.920;2023-03-05T12:38:00;48.95;47.77;50.00;;
17594;Laerm;8916;47.086;15.920;2023-03-05T12:40:50;48.97;47.61;50.11;;
17594;Laerm;8916;47.086;15.920;2023-03-05T12:43:31;48.99;47.83;50.32;;
17594;Laerm;8916;47.086;15.920;2023-03-05T12:46:25;48.97;47.81;50.34;;
17594;Laerm;8916;47.086;15.920;2023-03-05T12:48:56;48.93;47.88;50.11;;
17594;Laerm;8916;47.086;15.920;2023-03-05T12:51:43;48.94;47.79;50.23;;
17594;Laerm;8916;47.086;15.920;2023-03-05T12:54:32;48.91;47.54;49.94;;
17594;Laerm;8916;47.086;15.920;2023-03-05T12:57:04;48.86;47.74;50.43;;
17594;Laerm;8916;47.086;15.920;2023-03-05T12:59:42;48.86;47.61;50.20;;
17594;Laerm;8916;47.086;15.920;2023-03-05T13:02:27;48.85;47.74;50.31;;
17594;Laerm;8916;47.086;15.920;2023-03-05T13:05:03;48.86;47.70;50.00;;
17594;Laerm;8916;47.086;15.920;2023-03-05T13:07:35;48.88;47.77;50.08;;
17594;Laerm;8916;47.086;15.920;2023-03-05T13:10:05;48.87;47.72;50.15;;
17594;Laerm;8916;47.086;15.920;2023-03-05T13:12:35;48.88;47.72;50.24;;
17594;Laerm;8916;47.086;15.920;2023-03-05T13:15:14;48.90;47.81;50.15;;
17594;Laerm;8916;47.086;15.920;2023-03-05T13:17:54;48.90;47.72;50.05;;
17594;Laerm;8916;47.086;15.920;2023-03-05T13:20:32;48.90;47.83;50.06;;
17594;Laerm;8916;47.086;15.920;2023-03-05T13:23:21;48.89;47.68;49.95;;
17594;Laerm;8916;47.086;15.920;2023-03-05T13:26:01;48.86;47.63;50.19;;
17594;Laerm;8916;47.086;15.920;2023-03-05T13:28:31;48.87;47.63;49.93;;
17594;Laerm;8916;47.086;15.920;2023-03-05T13:31:03;48.85;47.59;50.07;;
17594;Laerm;8916;47.086;15.920;2023-03-05T13:33:49;48.85;47.90;50.07;;
17594;Laerm;8916;47.086;15.920;2023-03-05T13:36:23;48.86;47.79;50.15;;
17594;Laerm;8916;47.086;15.920;2023-03-05T13:38:52;48.86;47.54;50.21;;
17594;Laerm;8916;47.086;15.920;2023-03-05T13:41:24;48.88;47.72;50.05;;
17594;Laerm;8916;47.086;15.920;2023-03-05T13:43:57;48.87;47.83;50.05;;
17594;Laerm;8916;47.086;15.920;2023-03-05T13:46:35;48.88;47.81;50.23;;
17594;Laerm;8916;47.086;15.920;2023-03-05T13:49:21;48.86;47.65;49.91;;
17594;Laerm;8916;47.086;15.920;2023-03-05T13:51:53;48.83;47.79;50.09;;
17594;Laerm;8916;47.086;15.920;2023-03-05T13:54:23;48.80;47.74;49.91;;
17594;Laerm;8916;47.086;15.920;2023-03-05T13:56:55;48.79;47.72;49.93;;
17594;Laerm;8916;47.086;15.920;2023-03-05T13:59:27;48.80;47.72;50.14;;
17594;Laerm;8916;47.086;15.920;2023-03-05T14:02:04;48.78;47.76;50.00;;
17594;Laerm;8916;47.086;15.920;2023-03-05T14:04:44;48.72;47.67;50.02;;
17594;Laerm;8916;47.086;15.920;2023-03-05T14:07:27;48.73;47.72;50.25;;
17594;Laerm;8916;47.086;15.920;2023-03-05T14:09:57;48.77;47.57;50.02;;
17594;Laerm;8916;47.086;15.920;2023-03-05T14:12:34;48.81;47.46;49.83;;
17594;Laerm;8916;47.086;15.920;2023-03-05T14:15:15;48.83;47.63;49.97;;
17594;Laerm;8916;47.086;15.920;2023-03-05T14:17:48;48.85;47.74;50.40;;